sensor_id;sensor_type;location;lat;lon;timestamp;pressure;altitude;pressure_sealevel;temperature;humidity
69971;BME280;57301;50.328;8.542;2023-02-08T00:00:38;100673.16;;;-5.20;86.78
69971;BME280;57301;50.328;8.542;2023-02-08T00:03:05;100674.91;;;-5.25;87.04
69971;BME280;57301;50.328;8.542;2023-02-08T00:05:32;100675.78;;;-5.32;86.50
69971;BME280;57301;50.328;8.542;2023-02-08T00:07:59;100668.81;;;-5.35;86.76
69971;BME280;57301;50.328;8.542;2023-02-08T00:10:25;100667.97;;;-5.35;86.43
69971;BME280;57301;50.328;8.542;2023-02-08T00:12:52;100672.31;;;-5.36;86.37
69971;BME280;57301;50.328;8.542;2023-02-08T00:15:18;100670.56;;;-5.37;86.33
69971;BME280;57301;50.328;8.542;2023-02-08T00:17:45;100668.84;;;-5.38;86.51
69971;BME280;57301;50.328;8.542;2023-02-08T00:20:12;100658.44;;;-5.41;86.33
69971;BME280;57301;50.328;8.542;2023-02-08T00:22:38;100658.44;;;-5.41;86.54
69971;BME280;57301;50.328;8.542;2023-02-08T00:25:05;100658.44;;;-5.36;87.03
69971;BME280;57301;50.328;8.542;2023-02-08T00:27:32;100653.25;;;-5.32;87.06
69971;BME280;57301;50.328;8.542;2023-02-08T00:29:59;100662.78;;;-5.31;87.17
69971;BME280;57301;50.328;8.542;2023-02-08T00:32:26;100661.91;;;-5.37;86.99
69971;BME280;57301;50.328;8.542;2023-02-08T00:34:52;100656.69;;;-5.41;87.35
69971;BME280;57301;50.328;8.542;2023-02-08T00:37:18;100658.44;;;-5.38;86.92
69971;BME280;57301;50.328;8.542;2023-02-08T00:39:45;100657.59;;;-5.32;87.21
69971;BME280;57301;50.328;8.542;2023-02-08T00:42:12;100646.31;;;-5.45;87.24
69971;BME280;57301;50.328;8.542;2023-02-08T00:44:38;100653.25;;;-5.44;86.91
69971;BME280;57301;50.328;8.542;2023-02-08T00:47:05;100653.25;;;-5.43;87.19
69971;BME280;57301;50.328;8.542;2023-02-08T00:49:31;100648.91;;;-5.44;86.55
69971;BME280;57301;50.328;8.542;2023-02-08T00:51:58;100651.50;;;-5.44;86.38
69971;BME280;57301;50.328;8.542;2023-02-08T00:54:24;100648.91;;;-5.44;86.50
69971;BME280;57301;50.328;8.542;2023-02-08T00:56:50;100654.97;;;-5.48;86.86
69971;BME280;57301;50.328;8.542;2023-02-08T00:59:17;100642.00;;;-5.55;86.52
69971;BME280;57301;50.328;8.542;2023-02-08T01:01:44;100646.31;;;-5.54;86.25
69971;BME280;57301;50.328;8.542;2023-02-08T01:04:10;100645.47;;;-5.58;86.32
69971;BME280;57301;50.328;8.542;2023-02-08T01:06:36;100646.31;;;-5.56;86.18
69971;BME280;57301;50.328;8.542;2023-02-08T01:09:03;100651.53;;;-5.56;86.36
69971;BME280;57301;50.328;8.542;2023-02-08T01:11:30;100644.59;;;-5.57;86.04
69971;BME280;57301;50.328;8.542;2023-02-08T01:13:57;100650.66;;;-5.55;85.44
69971;BME280;57301;50.328;8.542;2023-02-08T01:16:26;100652.38;;;-5.63;86.11
69971;BME280;57301;50.328;8.542;2023-02-08T01:18:54;100643.72;;;-5.63;86.18
69971;BME280;57301;50.328;8.542;2023-02-08T01:21:24;100645.47;;;-5.64;85.79
69971;BME280;57301;50.328;8.542;2023-02-08T01:23:51;100647.19;;;-5.63;86.03
69971;BME280;57301;50.328;8.542;2023-02-08T01:26:20;100645.47;;;-5.62;85.33
69971;BME280;57301;50.328;8.542;2023-02-08T01:28:47;100640.25;;;-5.72;86.33
69971;BME280;57301;50.328;8.542;2023-02-08T01:31:19;100630.75;;;-5.70;86.63
69971;BME280;57301;50.328;8.542;2023-02-08T01:33:47;100638.53;;;-5.63;86.87
69971;BME280;57301;50.328;8.542;2023-02-08T01:36:14;100646.31;;;-5.68;87.19
69971;BME280;57301;50.328;8.542;2023-02-08T01:38:42;100637.66;;;-5.75;87.06
69971;BME280;57301;50.328;8.542;2023-02-08T01:41:15;100643.72;;;-5.91;87.23
69971;BME280;57301;50.328;8.542;2023-02-08T01:46:30;100637.69;;;-5.91;87.64
69971;BME280;57301;50.328;8.542;2023-02-08T01:49:00;100636.78;;;-5.87;87.46
69971;BME280;57301;50.328;8.542;2023-02-08T01:51:32;100637.66;;;-5.87;87.48
69971;BME280;57301;50.328;8.542;2023-02-08T01:54:00;100641.13;;;-5.88;87.19
69971;BME280;57301;50.328;8.542;2023-02-08T01:56:31;100639.38;;;-5.90;87.09
69971;BME280;57301;50.328;8.542;2023-02-08T01:59:02;100642.00;;;-5.89;87.22
69971;BME280;57301;50.328;8.542;2023-02-08T02:01:30;100642.88;;;-5.93;87.17
69971;BME280;57301;50.328;8.542;2023-02-08T02:04:00;100644.59;;;-6.01;86.93
69971;BME280;57301;50.328;8.542;2023-02-08T02:06:32;100642.84;;;-6.02;86.69
69971;BME280;57301;50.328;8.542;2023-02-08T02:09:13;100640.22;;;-6.14;86.29
69971;BME280;57301;50.328;8.542;2023-02-08T02:11:47;100642.81;;;-6.14;86.00
69971;BME280;57301;50.328;8.542;2023-02-08T02:14:15;100647.16;;;-6.16;86.26
69971;BME280;57301;50.328;8.542;2023-02-08T02:16:42;100648.91;;;-6.09;85.93
69971;BME280;57301;50.328;8.542;2023-02-08T02:22:06;100638.53;;;-5.99;86.74
69971;BME280;57301;50.328;8.542;2023-02-08T02:25:06;100644.59;;;-5.98;86.15
69971;BME280;57301;50.328;8.542;2023-02-08T02:41:37;100635.03;;;-6.17;87.55
69971;BME280;57301;50.328;8.542;2023-02-08T02:47:38;100634.16;;;-6.15;87.00
69971;BME280;57301;50.328;8.542;2023-02-08T02:52:50;100637.63;;;-6.14;86.75
69971;BME280;57301;50.328;8.542;2023-02-08T02:55:23;100632.44;;;-6.20;86.35
69971;BME280;57301;50.328;8.542;2023-02-08T02:57:52;100632.44;;;-6.16;85.98
69971;BME280;57301;50.328;8.542;2023-02-08T03:00:23;100631.59;;;-6.18;86.30
69971;BME280;57301;50.328;8.542;2023-02-08T03:02:51;100625.53;;;-6.15;86.51
69971;BME280;57301;50.328;8.542;2023-02-08T03:05:18;100623.78;;;-6.16;86.68
69971;BME280;57301;50.328;8.542;2023-02-08T03:11:03;100622.94;;;-6.17;85.56
69971;BME280;57301;50.328;8.542;2023-02-08T03:16:19;100632.41;;;-6.30;85.75
69971;BME280;57301;50.328;8.542;2023-02-08T03:21:47;100623.78;;;-6.32;86.43
69971;BME280;57301;50.328;8.542;2023-02-08T03:33:27;100622.84;;;-6.46;85.84
69971;BME280;57301;50.328;8.542;2023-02-08T03:36:20;100624.63;;;-6.31;86.24
69971;BME280;57301;50.328;8.542;2023-02-08T03:38:52;100627.19;;;-6.42;86.34
69971;BME280;57301;50.328;8.542;2023-02-08T03:41:25;100630.66;;;-6.34;86.38
69971;BME280;57301;50.328;8.542;2023-02-08T03:43:59;100627.19;;;-6.42;86.77
69971;BME280;57301;50.328;8.542;2023-02-08T03:46:31;100627.19;;;-6.48;86.48
69971;BME280;57301;50.328;8.542;2023-02-08T03:49:02;100633.22;;;-6.54;85.85
69971;BME280;57301;50.328;8.542;2023-02-08T03:51:31;100633.22;;;-6.55;86.98
69971;BME280;57301;50.328;8.542;2023-02-08T03:54:01;100636.69;;;-6.50;86.57
69971;BME280;57301;50.328;8.542;2023-02-08T03:56:34;100634.94;;;-6.53;86.55
69971;BME280;57301;50.328;8.542;2023-02-08T03:59:08;100639.28;;;-6.50;86.22
69971;BME280;57301;50.328;8.542;2023-02-08T04:01:43;100634.09;;;-6.47;86.62
69971;BME280;57301;50.328;8.542;2023-02-08T04:04:11;100631.53;;;-6.39;87.26
69971;BME280;57301;50.328;8.542;2023-02-08T04:06:39;100624.59;;;-6.42;87.04
69971;BME280;57301;50.328;8.542;2023-02-08T04:09:06;100624.53;;;-6.59;87.33
69971;BME280;57301;50.328;8.542;2023-02-08T04:11:32;100627.97;;;-6.66;88.10
69971;BME280;57301;50.328;8.542;2023-02-08T04:13:59;100634.00;;;-6.70;88.02
69971;BME280;57301;50.328;8.542;2023-02-08T04:16:25;100633.22;;;-6.57;86.66
69971;BME280;57301;50.328;8.542;2023-02-08T04:18:52;100625.41;;;-6.58;86.10
69971;BME280;57301;50.328;8.542;2023-02-08T04:21:18;100634.94;;;-6.53;87.09
69971;BME280;57301;50.328;8.542;2023-02-08T04:23:48;100626.31;;;-6.45;86.93
69971;BME280;57301;50.328;8.542;2023-02-08T04:26:14;100625.47;;;-6.40;86.57
69971;BME280;57301;50.328;8.542;2023-02-08T04:28:40;100628.09;;;-6.35;86.22
69971;BME280;57301;50.328;8.542;2023-02-08T04:31:07;100632.38;;;-6.48;85.82
69971;BME280;57301;50.328;8.542;2023-02-08T04:33:34;100633.22;;;-6.54;85.11
69971;BME280;57301;50.328;8.542;2023-02-08T04:36:00;100624.53;;;-6.57;86.06
69971;BME280;57301;50.328;8.542;2023-02-08T04:38:27;100620.22;;;-6.63;85.22
69971;BME280;57301;50.328;8.542;2023-02-08T04:40:53;100621.06;;;-6.68;85.61
69971;BME280;57301;50.328;8.542;2023-02-08T04:43:20;100616.75;;;-6.63;86.37
69971;BME280;57301;50.328;8.542;2023-02-08T04:45:51;100616.75;;;-6.63;86.07
69971;BME280;57301;50.328;8.542;2023-02-08T04:48:18;100613.28;;;-6.65;86.59
69971;BME280;57301;50.328;8.542;2023-02-08T04:50:44;100611.53;;;-6.63;85.78
69971;BME280;57301;50.328;8.542;2023-02-08T04:53:13;100610.72;;;-6.53;85.54
69971;BME280;57301;50.328;8.542;2023-02-08T04:55:39;100608.13;;;-6.59;85.49
69971;BME280;57301;50.328;8.542;2023-02-08T04:58:06;100608.09;;;-6.68;85.12
69971;BME280;57301;50.328;8.542;2023-02-08T05:00:32;100611.53;;;-6.65;85.27
69971;BME280;57301;50.328;8.542;2023-02-08T05:02:59;100612.41;;;-6.66;86.17
69971;BME280;57301;50.328;8.542;2023-02-08T05:05:26;100615.00;;;-6.69;86.02
69971;BME280;57301;50.328;8.542;2023-02-08T05:07:53;100606.34;;;-6.72;85.43
69971;BME280;57301;50.328;8.542;2023-02-08T05:10:20;100617.59;;;-6.64;85.42
69971;BME280;57301;50.328;8.542;2023-02-08T05:12:46;100612.41;;;-6.67;85.37
69971;BME280;57301;50.328;8.542;2023-02-08T05:15:13;100609.81;;;-6.75;86.04
69971;BME280;57301;50.328;8.542;2023-02-08T05:17:39;100608.94;;;-6.72;85.82
69971;BME280;57301;50.328;8.542;2023-02-08T05:20:07;100614.13;;;-6.74;86.54
69971;BME280;57301;50.328;8.542;2023-02-08T05:22:33;100612.41;;;-6.73;86.03
69971;BME280;57301;50.328;8.542;2023-02-08T05:25:00;100616.63;;;-6.91;86.02
69971;BME280;57301;50.328;8.542;2023-02-08T05:27:26;100618.34;;;-6.94;86.71
69971;BME280;57301;50.328;8.542;2023-02-08T05:29:53;100614.88;;;-6.98;86.59
69971;BME280;57301;50.328;8.542;2023-02-08T05:32:20;100613.16;;;-6.97;86.65
69971;BME280;57301;50.328;8.542;2023-02-08T05:34:46;100620.00;;;-7.07;86.66
69971;BME280;57301;50.328;8.542;2023-02-08T05:37:13;100617.47;;;-6.95;86.42
69971;BME280;57301;50.328;8.542;2023-02-08T05:39:39;100627.94;;;-6.81;85.88
69971;BME280;57301;50.328;8.542;2023-02-08T05:42:06;100614.03;;;-6.88;86.22
69971;BME280;57301;50.328;8.542;2023-02-08T05:44:32;100614.94;;;-6.86;86.53
69971;BME280;57301;50.328;8.542;2023-02-08T05:46:59;100620.13;;;-6.83;85.63
69971;BME280;57301;50.328;8.542;2023-02-08T05:49:25;100623.59;;;-6.87;86.54
69971;BME280;57301;50.328;8.542;2023-02-08T05:51:52;100627.84;;;-6.95;86.81
69971;BME280;57301;50.328;8.542;2023-02-08T05:54:19;100628.72;;;-6.96;86.55
69971;BME280;57301;50.328;8.542;2023-02-08T05:56:45;100633.91;;;-6.94;86.19
69971;BME280;57301;50.328;8.542;2023-02-08T05:59:12;100637.38;;;-6.92;87.03
69971;BME280;57301;50.328;8.542;2023-02-08T06:01:38;100640.84;;;-6.89;86.82
69971;BME280;57301;50.328;8.542;2023-02-08T06:04:05;100639.13;;;-6.93;86.61
69971;BME280;57301;50.328;8.542;2023-02-08T06:06:31;100643.44;;;-6.93;85.87
69971;BME280;57301;50.328;8.542;2023-02-08T06:08:58;100637.41;;;-6.82;86.53
69971;BME280;57301;50.328;8.542;2023-02-08T06:11:24;100646.94;;;-6.81;85.40
69971;BME280;57301;50.328;8.542;2023-02-08T06:13:51;100645.16;;;-6.91;85.94
69971;BME280;57301;50.328;8.542;2023-02-08T06:16:17;100642.53;;;-6.97;86.20
69971;BME280;57301;50.328;8.542;2023-02-08T06:18:45;100643.44;;;-6.93;85.67
69971;BME280;57301;50.328;8.542;2023-02-08T06:21:12;100639.94;;;-6.95;86.08
69971;BME280;57301;50.328;8.542;2023-02-08T06:23:38;100647.72;;;-6.94;85.34
69971;BME280;57301;50.328;8.542;2023-02-08T06:26:05;100644.28;;;-6.97;85.37
69971;BME280;57301;50.328;8.542;2023-02-08T06:28:31;100647.66;;;-7.09;85.64
69971;BME280;57301;50.328;8.542;2023-02-08T06:30:58;100648.56;;;-7.03;86.77
69971;BME280;57301;50.328;8.542;2023-02-08T06:33:24;100648.63;;;-6.93;86.37
69971;BME280;57301;50.328;8.542;2023-02-08T06:35:51;100653.84;;;-6.87;86.79
69971;BME280;57301;50.328;8.542;2023-02-08T06:38:18;100646.91;;;-6.82;87.04
69971;BME280;57301;50.328;8.542;2023-02-08T06:40:46;100653.91;;;-6.72;86.46
69971;BME280;57301;50.328;8.542;2023-02-08T06:43:13;100651.31;;;-6.73;86.13
69971;BME280;57301;50.328;8.542;2023-02-08T06:45:43;100653.03;;;-6.72;86.96
69971;BME280;57301;50.328;8.542;2023-02-08T06:48:10;100660.84;;;-6.68;86.30
69971;BME280;57301;50.328;8.542;2023-02-08T06:50:36;100653.91;;;-6.66;86.10
69971;BME280;57301;50.328;8.542;2023-02-08T06:53:04;100650.47;;;-6.63;86.82
69971;BME280;57301;50.328;8.542;2023-02-08T06:55:30;100640.97;;;-6.58;86.39
69971;BME280;57301;50.328;8.542;2023-02-08T06:57:57;100641.88;;;-6.53;85.76
69971;BME280;57301;50.328;8.542;2023-02-08T07:00:23;100643.59;;;-6.54;86.18
69971;BME280;57301;50.328;8.542;2023-02-08T07:02:50;100639.25;;;-6.58;85.78
69971;BME280;57301;50.328;8.542;2023-02-08T07:05:17;100640.13;;;-6.60;85.51
69971;BME280;57301;50.328;8.542;2023-02-08T07:07:44;100637.53;;;-6.54;85.28
69971;BME280;57301;50.328;8.542;2023-02-08T07:10:10;100634.91;;;-6.57;84.85
69971;BME280;57301;50.328;8.542;2023-02-08T07:12:37;100639.28;;;-6.47;85.01
69971;BME280;57301;50.328;8.542;2023-02-08T07:15:03;100641.09;;;-6.22;85.75
69971;BME280;57301;50.328;8.542;2023-02-08T07:17:30;100640.28;;;-5.76;85.98
69971;BME280;57301;50.328;8.542;2023-02-08T07:19:56;100644.53;;;-5.13;84.59
69971;BME280;57301;50.328;8.542;2023-02-08T07:22:23;100648.63;;;-4.43;82.75
69971;BME280;57301;50.328;8.542;2023-02-08T07:24:49;100639.59;;;-3.79;78.57
69971;BME280;57301;50.328;8.542;2023-02-08T07:27:16;100634.66;;;-3.13;75.73
69971;BME280;57301;50.328;8.542;2023-02-08T07:29:42;100637.38;;;-2.45;73.63
69971;BME280;57301;50.328;8.542;2023-02-08T07:32:09;100625.25;;;-1.89;71.38
69971;BME280;57301;50.328;8.542;2023-02-08T07:34:37;100631.81;;;-1.64;68.53
69971;BME280;57301;50.328;8.542;2023-02-08T07:37:06;100624.78;;;-1.58;66.84
69971;BME280;57301;50.328;8.542;2023-02-08T07:39:33;100622.75;;;-1.43;66.66
69971;BME280;57301;50.328;8.542;2023-02-08T07:41:59;100623.81;;;-1.05;66.11
69971;BME280;57301;50.328;8.542;2023-02-08T07:44:26;100610.09;;;-0.71;64.00
69971;BME280;57301;50.328;8.542;2023-02-08T07:46:52;100616.75;;;-0.57;63.18
69971;BME280;57301;50.328;8.542;2023-02-08T07:49:19;100621.78;;;-0.46;62.97
69971;BME280;57301;50.328;8.542;2023-02-08T07:51:45;100616.53;;;-0.46;62.89
69971;BME280;57301;50.328;8.542;2023-02-08T07:54:12;100627.84;;;-0.44;63.34
69971;BME280;57301;50.328;8.542;2023-02-08T07:56:38;100621.44;;;-0.29;63.38
69971;BME280;57301;50.328;8.542;2023-02-08T07:59:04;100620.13;;;-0.10;62.97
69971;BME280;57301;50.328;8.542;2023-02-08T08:01:31;100622.66;;;-0.05;62.17
69971;BME280;57301;50.328;8.542;2023-02-08T08:03:58;100624.53;;;0.27;62.30
69971;BME280;57301;50.328;8.542;2023-02-08T08:06:24;100624.47;;;0.98;60.80
69971;BME280;57301;50.328;8.542;2023-02-08T08:08:51;100624.00;;;1.46;60.36
69971;BME280;57301;50.328;8.542;2023-02-08T08:11:18;100613.78;;;1.95;58.05
69971;BME280;57301;50.328;8.542;2023-02-08T08:13:46;100621.97;;;2.13;56.54
69971;BME280;57301;50.328;8.542;2023-02-08T08:16:12;100616.63;;;2.43;56.27
69971;BME280;57301;50.328;8.542;2023-02-08T08:18:39;100610.56;;;2.67;55.34
69971;BME280;57301;50.328;8.542;2023-02-08T08:21:06;100609.72;;;2.92;54.56
69971;BME280;57301;50.328;8.542;2023-02-08T08:23:33;100599.00;;;3.21;53.79
69971;BME280;57301;50.328;8.542;2023-02-08T08:26:20;100609.91;;;3.36;53.38
69971;BME280;57301;50.328;8.542;2023-02-08T08:28:47;100614.41;;;3.57;52.33
69971;BME280;57301;50.328;8.542;2023-02-08T08:31:18;100611.75;;;3.57;52.19
69971;BME280;57301;50.328;8.542;2023-02-08T08:33:46;100609.34;;;3.51;52.24
69971;BME280;57301;50.328;8.542;2023-02-08T08:36:13;100605.16;;;3.69;52.77
69971;BME280;57301;50.328;8.542;2023-02-08T08:38:39;100597.72;;;3.78;53.03
69971;BME280;57301;50.328;8.542;2023-02-08T08:41:11;100598.72;;;3.98;53.08
69971;BME280;57301;50.328;8.542;2023-02-08T08:43:40;100595.19;;;4.21;52.73
69971;BME280;57301;50.328;8.542;2023-02-08T08:46:07;100595.19;;;4.43;52.21
69971;BME280;57301;50.328;8.542;2023-02-08T08:48:34;100595.44;;;4.15;51.35
69971;BME280;57301;50.328;8.542;2023-02-08T08:51:02;100596.34;;;4.36;52.20
69971;BME280;57301;50.328;8.542;2023-02-08T08:53:28;100588.28;;;4.39;51.08
69971;BME280;57301;50.328;8.542;2023-02-08T08:55:55;100594.31;;;4.20;51.81
69971;BME280;57301;50.328;8.542;2023-02-08T08:58:22;100590.34;;;4.32;52.23
69971;BME280;57301;50.328;8.542;2023-02-08T09:00:48;100596.59;;;4.29;50.86
69971;BME280;57301;50.328;8.542;2023-02-08T09:03:15;100592.84;;;4.35;51.83
69971;BME280;57301;50.328;8.542;2023-02-08T09:05:41;100586.00;;;4.51;50.70
69971;BME280;57301;50.328;8.542;2023-02-08T09:08:08;100585.75;;;4.57;51.66
69971;BME280;57301;50.328;8.542;2023-02-08T09:10:34;100585.81;;;4.56;49.29
69971;BME280;57301;50.328;8.542;2023-02-08T09:13:01;100590.91;;;4.61;50.71
69971;BME280;57301;50.328;8.542;2023-02-08T09:15:27;100592.91;;;4.76;51.46
69971;BME280;57301;50.328;8.542;2023-02-08T09:17:54;100592.78;;;4.99;50.55
69971;BME280;57301;50.328;8.542;2023-02-08T09:20:21;100583.69;;;5.25;50.99
69971;BME280;57301;50.328;8.542;2023-02-08T09:22:47;100581.72;;;5.49;49.93
69971;BME280;57301;50.328;8.542;2023-02-08T09:25:14;100574.16;;;5.79;48.21
69971;BME280;57301;50.328;8.542;2023-02-08T09:27:41;100575.66;;;5.66;47.56
69971;BME280;57301;50.328;8.542;2023-02-08T09:30:08;100577.78;;;5.77;46.34
69971;BME280;57301;50.328;8.542;2023-02-08T09:32:34;100576.59;;;5.65;47.39
69971;BME280;57301;50.328;8.542;2023-02-08T09:35:02;100575.50;;;5.88;45.98
69971;BME280;57301;50.328;8.542;2023-02-08T09:37:29;100580.94;;;5.85;46.04
69971;BME280;57301;50.328;8.542;2023-02-08T09:39:55;100578.53;;;5.99;47.20
69971;BME280;57301;50.328;8.542;2023-02-08T09:45:58;100571.13;;;6.42;46.15
69971;BME280;57301;50.328;8.542;2023-02-08T09:48:36;100570.31;;;6.76;44.69
69971;BME280;57301;50.328;8.542;2023-02-08T09:53:42;100578.84;;;6.81;44.72
69971;BME280;57301;50.328;8.542;2023-02-08T09:56:15;100577.84;;;7.01;44.99
69971;BME280;57301;50.328;8.542;2023-02-08T09:58:44;100588.75;;;7.45;43.03
69971;BME280;57301;50.328;8.542;2023-02-08T10:06:24;100569.47;;;9.96;37.32
69971;BME280;57301;50.328;8.542;2023-02-08T10:08:51;100571.28;;;9.96;36.47
69971;BME280;57301;50.328;8.542;2023-02-08T10:17:04;100577.72;;;11.64;33.61
69971;BME280;57301;50.328;8.542;2023-02-08T10:20:14;100577.38;;;11.94;31.70
69971;BME280;57301;50.328;8.542;2023-02-08T10:22:44;100573.03;;;12.41;31.01
69971;BME280;57301;50.328;8.542;2023-02-08T10:25:29;100566.44;;;11.97;30.49
69971;BME280;57301;50.328;8.542;2023-02-08T10:33:44;100560.06;;;13.51;28.89
69971;BME280;57301;50.328;8.542;2023-02-08T10:36:18;100553.06;;;13.15;29.20
69971;BME280;57301;50.328;8.542;2023-02-08T10:38:48;100552.03;;;12.94;29.26
69971;BME280;57301;50.328;8.542;2023-02-08T10:41:21;100541.41;;;13.61;28.54
69971;BME280;57301;50.328;8.542;2023-02-08T10:44:00;100541.03;;;13.54;27.50
69971;BME280;57301;50.328;8.542;2023-02-08T10:46:34;100540.13;;;13.98;28.19
69971;BME280;57301;50.328;8.542;2023-02-08T10:49:28;100537.28;;;14.55;27.39
69971;BME280;57301;50.328;8.542;2023-02-08T10:52:00;100535.25;;;14.47;26.72
69971;BME280;57301;50.328;8.542;2023-02-08T10:54:27;100540.94;;;14.21;27.12
69971;BME280;57301;50.328;8.542;2023-02-08T10:56:56;100530.22;;;14.10;27.58
69971;BME280;57301;50.328;8.542;2023-02-08T10:59:36;100524.50;;;15.30;26.78
69971;BME280;57301;50.328;8.542;2023-02-08T11:02:20;100525.63;;;16.18;24.80
69971;BME280;57301;50.328;8.542;2023-02-08T11:05:17;100527.91;;;16.61;24.06
69971;BME280;57301;50.328;8.542;2023-02-08T11:07:46;100527.38;;;16.58;24.54
69971;BME280;57301;50.328;8.542;2023-02-08T11:12:57;100513.59;;;17.37;23.60
69971;BME280;57301;50.328;8.542;2023-02-08T11:15:33;100516.44;;;16.30;22.58
69971;BME280;57301;50.328;8.542;2023-02-08T11:18:03;100498.53;;;15.41;22.56
69971;BME280;57301;50.328;8.542;2023-02-08T11:20:40;100500.50;;;14.66;21.11
69971;BME280;57301;50.328;8.542;2023-02-08T11:23:30;100508.16;;;14.18;22.05
69971;BME280;57301;50.328;8.542;2023-02-08T11:28:40;100496.69;;;13.50;23.23
69971;BME280;57301;50.328;8.542;2023-02-08T11:31:16;100491.09;;;14.40;23.06
69971;BME280;57301;50.328;8.542;2023-02-08T11:34:04;100491.78;;;13.78;23.39
69971;BME280;57301;50.328;8.542;2023-02-08T11:36:32;100481.06;;;14.10;23.39
69971;BME280;57301;50.328;8.542;2023-02-08T11:39:01;100490.47;;;14.47;22.66
69971;BME280;57301;50.328;8.542;2023-02-08T11:41:29;100486.16;;;14.56;22.14
69971;BME280;57301;50.328;8.542;2023-02-08T11:44:03;100482.81;;;14.64;22.28
69971;BME280;57301;50.328;8.542;2023-02-08T11:46:33;100488.78;;;15.19;21.80
69971;BME280;57301;50.328;8.542;2023-02-08T11:49:00;100486.03;;;15.40;21.40
69971;BME280;57301;50.328;8.542;2023-02-08T11:51:33;100481.22;;;12.51;24.20
69971;BME280;57301;50.328;8.542;2023-02-08T11:54:03;100483.72;;;12.88;23.13
69971;BME280;57301;50.328;8.542;2023-02-08T11:56:31;100478.06;;;13.49;22.84
69971;BME280;57301;50.328;8.542;2023-02-08T12:01:40;100474.59;;;12.79;22.96
69971;BME280;57301;50.328;8.542;2023-02-08T12:04:10;100471.47;;;13.41;22.96
69971;BME280;57301;50.328;8.542;2023-02-08T12:06:58;100473.44;;;13.39;22.81
69971;BME280;57301;50.328;8.542;2023-02-08T12:15:42;100460.75;;;13.53;23.81
69971;BME280;57301;50.328;8.542;2023-02-08T12:18:43;100463.63;;;14.68;23.58
69971;BME280;57301;50.328;8.542;2023-02-08T12:21:25;100463.22;;;14.94;21.41
69971;BME280;57301;50.328;8.542;2023-02-08T12:23:59;100452.38;;;15.45;21.25
69971;BME280;57301;50.328;8.542;2023-02-08T12:26:41;100458.75;;;15.35;21.18
69971;BME280;57301;50.328;8.542;2023-02-08T12:32:14;100454.19;;;14.53;22.58
69971;BME280;57301;50.328;8.542;2023-02-08T12:34:53;100456.00;;;11.47;25.51
69971;BME280;57301;50.328;8.542;2023-02-08T12:37:35;100450.28;;;13.05;23.82
69971;BME280;57301;50.328;8.542;2023-02-08T12:43:41;100438.53;;;14.05;22.96
69971;BME280;57301;50.328;8.542;2023-02-08T12:52:50;100422.91;;;14.63;22.37
69971;BME280;57301;50.328;8.542;2023-02-08T12:54:53;100423.03;;;14.09;23.25
69971;BME280;57301;50.328;8.542;2023-02-08T12:57:23;100415.19;;;14.49;23.26
69971;BME280;57301;50.328;8.542;2023-02-08T12:59:56;100410.66;;;14.17;22.68
69971;BME280;57301;50.328;8.542;2023-02-08T13:04:55;100409.56;;;14.41;22.81
69971;BME280;57301;50.328;8.542;2023-02-08T13:07:29;100409.09;;;14.36;22.85
69971;BME280;57301;50.328;8.542;2023-02-08T13:10:11;100412.41;;;12.87;24.88
69971;BME280;57301;50.328;8.542;2023-02-08T13:12:41;100397.81;;;14.74;23.11
69971;BME280;57301;50.328;8.542;2023-02-08T13:15:21;100404.47;;;15.10;21.18
69971;BME280;57301;50.328;8.542;2023-02-08T13:17:59;100395.03;;;14.02;21.79
69971;BME280;57301;50.328;8.542;2023-02-08T13:23:43;100380.28;;;15.70;21.45
69971;BME280;57301;50.328;8.542;2023-02-08T13:26:23;100384.13;;;15.87;21.06
69971;BME280;57301;50.328;8.542;2023-02-08T13:28:55;100372.47;;;16.25;21.26
69971;BME280;57301;50.328;8.542;2023-02-08T13:31:31;100382.94;;;16.37;20.51
69971;BME280;57301;50.328;8.542;2023-02-08T13:34:17;100379.72;;;15.66;20.80
69971;BME280;57301;50.328;8.542;2023-02-08T13:36:51;100371.81;;;15.74;20.49
69971;BME280;57301;50.328;8.542;2023-02-08T13:42:04;100362.47;;;14.78;20.94
69971;BME280;57301;50.328;8.542;2023-02-08T13:44:36;100364.75;;;15.23;21.08
69971;BME280;57301;50.328;8.542;2023-02-08T13:47:05;100345.38;;;16.46;20.20
69971;BME280;57301;50.328;8.542;2023-02-08T13:49:51;100346.09;;;17.12;19.31
69971;BME280;57301;50.328;8.542;2023-02-08T13:52:45;100344.75;;;16.71;19.61
69971;BME280;57301;50.328;8.542;2023-02-08T13:58:35;100346.50;;;15.17;20.18
69971;BME280;57301;50.328;8.542;2023-02-08T14:01:24;100349.56;;;14.00;21.34
69971;BME280;57301;50.328;8.542;2023-02-08T14:11:59;100345.16;;;17.49;19.74
69971;BME280;57301;50.328;8.542;2023-02-08T14:14:35;100342.22;;;17.42;19.85
69971;BME280;57301;50.328;8.542;2023-02-08T14:19:41;100335.53;;;16.07;21.14
69971;BME280;57301;50.328;8.542;2023-02-08T14:25:04;100332.63;;;13.35;24.65
69971;BME280;57301;50.328;8.542;2023-02-08T14:30:21;100333.16;;;10.61;28.26
69971;BME280;57301;50.328;8.542;2023-02-08T14:33:08;100324.81;;;9.49;29.10
69971;BME280;57301;50.328;8.542;2023-02-08T14:35:49;100329.13;;;8.69;31.25
69971;BME280;57301;50.328;8.542;2023-02-08T14:41:00;100330.13;;;7.65;32.00
69971;BME280;57301;50.328;8.542;2023-02-08T14:45:56;100317.53;;;6.60;33.66
69971;BME280;57301;50.328;8.542;2023-02-08T14:48:27;100327.66;;;6.85;33.13
69971;BME280;57301;50.328;8.542;2023-02-08T14:51:01;100323.94;;;6.56;34.06
69971;BME280;57301;50.328;8.542;2023-02-08T14:58:45;100316.66;;;6.10;34.32
69971;BME280;57301;50.328;8.542;2023-02-08T15:03:55;100318.19;;;5.28;34.56
69971;BME280;57301;50.328;8.542;2023-02-08T15:09:11;100311.78;;;5.15;35.38
69971;BME280;57301;50.328;8.542;2023-02-08T15:11:39;100304.69;;;4.98;35.08
69971;BME280;57301;50.328;8.542;2023-02-08T15:14:06;100304.03;;;4.93;35.55
69971;BME280;57301;50.328;8.542;2023-02-08T15:16:42;100292.75;;;4.89;36.76
69971;BME280;57301;50.328;8.542;2023-02-08T15:19:20;100300.13;;;4.82;37.68
69971;BME280;57301;50.328;8.542;2023-02-08T15:21:48;100296.91;;;4.57;38.13
69971;BME280;57301;50.328;8.542;2023-02-08T15:24:21;100297.63;;;4.42;39.02